Time;durP1;ratioP1;P1;durP2;ratioP2;P2;SDS_P1;SDS_P2;PMS_P1;PMS_P2;Temp;Humidity;BMP_temperature;BMP_pressure;BME280_temperature;BME280_humidity;BME280_pressure;Samples;Min_cycle;Max_cycle;Signal;HPM_P1;HPM_P2
2023/10/10 00:01:07;;;;;;;8.68;4.85;;;16.50;99.90;;;;;;5113308;28;20089;-58
2023/10/10 00:03:36;;;;;;;8.23;4.93;;;16.60;99.90;;;;;;5113574;28;20035;-58
2023/10/10 00:06:09;;;;;;;7.70;4.00;;;16.50;99.90;;;;;;5114077;28;20054;-59
2023/10/10 00:08:43;;;;;;;7.85;4.40;;;16.60;99.90;;;;;;5113029;28;20111;-58
2023/10/10 00:11:10;;;;;;;7.43;4.10;;;16.70;99.90;;;;;;5104754;28;20038;-58
2023/10/10 00:14:04;;;;;;;8.10;3.78;;;16.40;99.90;;;;;;5093188;28;20048;-58
2023/10/10 00:16:37;;;;;;;7.47;3.67;;;16.70;99.90;;;;;;5093149;28;20043;-58
2023/10/10 00:21:50;;;;;;;8.77;3.30;;;16.70;99.90;;;;;;5113050;28;20116;-59
2023/10/10 00:24:20;;;;;;;7.55;3.53;;;16.40;99.90;;;;;;5112283;28;20108;-59
2023/10/10 00:26:47;;;;;;;6.70;3.05;;;16.50;99.90;;;;;;5112631;28;20557;-60
2023/10/10 00:29:13;;;;;;;7.10;3.40;;;16.60;99.90;;;;;;5112671;27;20308;-59
2023/10/10 00:31:57;;;;;;;7.75;3.10;;;16.40;99.90;;;;;;5108915;28;20075;-60
2023/10/10 00:34:33;;;;;;;5.90;2.88;;;16.60;99.90;;;;;;5111916;28;20043;-58
2023/10/10 00:37:07;;;;;;;8.23;3.30;;;16.40;99.90;;;;;;5113193;28;20039;-59
2023/10/10 00:39:35;;;;;;;5.28;2.63;;;16.60;99.90;;;;;;5113855;28;20084;-58
2023/10/10 00:42:05;;;;;;;6.07;2.70;;;16.50;99.90;;;;;;5113660;28;20055;-59
2023/10/10 00:44:33;;;;;;;6.28;2.83;;;16.40;99.90;;;;;;5113323;28;20116;-61
2023/10/10 00:47:03;;;;;;;7.00;2.85;;;16.60;99.90;;;;;;5109063;28;20044;-58
2023/10/10 00:49:31;;;;;;;6.70;2.92;;;16.40;99.90;;;;;;5092835;28;20093;-58
2023/10/10 00:52:01;;;;;;;5.43;3.00;;;16.60;99.90;;;;;;5092630;28;20386;-59
2023/10/10 00:54:31;;;;;;;6.05;2.90;;;16.40;99.90;;;;;;5093169;28;20036;-59
2023/10/10 00:56:59;;;;;;;8.52;3.33;;;16.30;99.90;;;;;;5093070;28;20432;-60
2023/10/10 00:59:34;;;;;;;7.65;3.08;;;16.50;99.90;;;;;;5092637;28;20040;-60
2023/10/10 01:02:04;;;;;;;6.68;3.58;;;16.40;99.90;;;;;;5092971;28;20085;-59
2023/10/10 01:04:48;;;;;;;7.10;4.13;;;16.60;99.90;;;;;;5092690;28;20548;-60
2023/10/10 01:07:21;;;;;;;6.88;3.78;;;16.40;99.90;;;;;;5092376;28;20028;-59
2023/10/10 01:12:20;;;;;;;8.90;4.55;;;16.30;99.90;;;;;;5112796;28;20055;-60
2023/10/10 01:14:46;;;;;;;9.35;4.60;;;16.40;99.90;;;;;;5110921;28;20498;-59
2023/10/10 01:17:14;;;;;;;8.25;4.47;;;16.50;99.90;;;;;;5089463;28;20025;-59
2023/10/10 01:19:44;;;;;;;8.20;4.70;;;16.40;99.90;;;;;;5091289;28;20071;-60
2023/10/10 01:22:22;;;;;;;10.80;4.88;;;16.20;99.90;;;;;;5109341;28;20054;-59
2023/10/10 01:24:52;;;;;;;10.55;5.40;;;16.40;99.90;;;;;;5111417;28;20079;-58
2023/10/10 01:27:21;;;;;;;8.70;5.70;;;16.40;99.90;;;;;;5105203;28;20372;-58
2023/10/10 01:30:16;;;;;;;11.63;7.03;;;16.20;99.90;;;;;;5091013;28;20051;-59
2023/10/10 01:32:38;;;;;;;15.43;6.82;;;16.10;99.90;;;;;;5091314;28;20051;-60
2023/10/10 01:35:15;;;;;;;11.57;7.47;;;16.10;99.90;;;;;;5092925;28;20050;-59
2023/10/10 01:37:41;;;;;;;10.43;7.22;;;16.30;99.90;;;;;;5111465;28;20040;-59
2023/10/10 01:40:16;;;;;;;12.85;7.18;;;16.30;99.90;;;;;;5091989;28;20035;-60
2023/10/10 01:42:53;;;;;;;12.00;7.15;;;16.30;99.90;;;;;;5091518;28;20040;-60
2023/10/10 01:45:27;;;;;;;15.20;7.82;;;16.30;99.90;;;;;;5092136;28;20405;-59
2023/10/10 01:48:10;;;;;;;13.63;8.10;;;16.30;99.90;;;;;;5092256;28;20380;-59
2023/10/10 01:50:37;;;;;;;10.93;8.45;;;16.00;99.90;;;;;;5091438;28;20047;-59
2023/10/10 01:53:05;;;;;;;15.38;9.80;;;16.20;99.90;;;;;;5091650;28;20036;-59
2023/10/10 01:55:31;;;;;;;17.10;10.25;;;16.20;99.90;;;;;;5090982;28;20044;-59
2023/10/10 01:58:02;;;;;;;15.40;9.68;;;16.20;99.90;;;;;;5091452;28;20040;-60
2023/10/10 02:00:34;;;;;;;17.23;11.07;;;16.10;99.90;;;;;;5091354;28;20440;-59
2023/10/10 02:03:01;;;;;;;18.48;11.85;;;16.00;99.90;;;;;;5091408;28;20502;-59
2023/10/10 02:08:16;;;;;;;15.77;12.18;;;15.90;99.90;;;;;;5091336;28;20043;-59
2023/10/10 02:10:46;;;;;;;17.35;13.02;;;15.90;99.90;;;;;;5091394;28;20077;-59
2023/10/10 02:13:14;;;;;;;18.50;12.90;;;16.20;99.90;;;;;;5109863;28;20039;-60
2023/10/10 02:15:39;;;;;;;19.15;13.40;;;16.10;99.90;;;;;;5111620;28;20035;-60
2023/10/10 02:18:23;;;;;;;21.95;13.30;;;16.00;99.90;;;;;;5110529;28;20501;-59
2023/10/10 02:20:49;;;;;;;19.15;13.63;;;15.90;99.90;;;;;;5110398;27;20475;-57
2023/10/10 02:25:53;;;;;;;20.30;14.00;;;16.10;99.90;;;;;;5089895;28;20105;-59
2023/10/10 02:30:48;;;;;;;22.58;15.38;;;16.10;99.90;;;;;;5091035;28;20047;-59
2023/10/10 02:35:54;;;;;;;21.77;15.65;;;15.80;99.90;;;;;;5077889;28;20035;-59
2023/10/10 02:38:39;;;;;;;20.92;14.85;;;15.90;99.90;;;;;;5111246;28;20091;-60
2023/10/10 02:41:25;;;;;;;20.20;14.85;;;15.90;99.90;;;;;;5111273;28;20043;-58
2023/10/10 02:46:34;;;;;;;20.50;15.50;;;16.10;99.90;;;;;;5107859;28;20040;-61
2023/10/10 02:51:48;;;;;;;18.30;14.70;;;15.80;99.90;;;;;;5109748;28;20051;-58
2023/10/10 02:56:57;;;;;;;20.45;15.57;;;16.10;99.90;;;;;;5103442;28;20046;-60
2023/10/10 02:59:38;;;;;;;18.67;15.05;;;15.90;99.90;;;;;;5090884;28;20032;-58
2023/10/10 03:02:10;;;;;;;20.35;16.38;;;16.00;99.90;;;;;;5090401;28;20040;-59
2023/10/10 03:07:27;;;;;;;19.73;16.10;;;16.10;99.90;;;;;;5090868;28;20139;-59
2023/10/10 03:12:32;;;;;;;23.80;18.75;;;16.00;99.90;;;;;;5102504;28;20059;-60
2023/10/10 03:18:04;;;;;;;22.17;18.90;;;15.80;99.90;;;;;;5090639;28;20059;-59
2023/10/10 03:28:33;;;;;;;29.23;21.52;;;16.00;99.90;;;;;;5089937;28;20526;-58
2023/10/10 05:25:29;;;;;;;;;;;15.20;99.90;;;;;;5092651;28;20040;-60
2023/10/10 05:27:58;;;;;;;28.38;21.23;;;15.30;99.90;;;;;;5110452;28;20017;-58
2023/10/10 05:30:25;;;;;;;26.85;21.95;;;15.40;99.90;;;;;;5112609;28;20040;-60
2023/10/10 05:33:01;;;;;;;28.17;22.75;;;15.40;99.90;;;;;;5097882;28;20494;-60
2023/10/10 05:35:37;;;;;;;26.40;20.85;;;15.40;99.90;;;;;;5091229;28;20098;-58
2023/10/10 05:38:04;;;;;;;30.92;22.48;;;15.50;99.90;;;;;;5091978;28;20038;-60
2023/10/10 05:40:34;;;;;;;33.38;22.67;;;15.40;99.90;;;;;;5092004;28;20036;-58
2023/10/10 05:43:01;;;;;;;31.75;23.92;;;15.20;99.90;;;;;;5091898;28;20039;-59
2023/10/10 05:45:29;;;;;;;35.88;24.02;;;15.10;99.90;;;;;;5110558;28;20035;-58
2023/10/10 05:47:54;;;;;;;35.78;24.80;;;15.20;99.90;;;;;;5110962;28;20458;-60
2023/10/10 05:50:21;;;;;;;30.35;22.60;;;15.10;99.90;;;;;;5112292;28;20120;-59
2023/10/10 05:52:48;;;;;;;37.35;24.90;;;15.40;99.90;;;;;;5107017;28;20093;-57
2023/10/10 05:55:15;;;;;;;33.20;25.55;;;15.00;99.90;;;;;;5090433;28;20054;-56
2023/10/10 05:57:41;;;;;;;30.42;23.83;;;15.40;99.90;;;;;;5108831;28;20498;-59
2023/10/10 06:00:10;;;;;;;36.08;25.58;;;15.30;99.90;;;;;;5111674;28;20112;-58
2023/10/10 06:02:42;;;;;;;36.78;26.30;;;15.00;99.90;;;;;;5112166;28;20650;-59
2023/10/10 06:05:12;;;;;;;40.20;28.38;;;15.00;99.90;;;;;;5110303;28;20089;-59
2023/10/10 06:07:42;;;;;;;38.60;27.25;;;15.20;99.90;;;;;;5111855;28;20032;-58
2023/10/10 06:10:15;;;;;;;40.78;28.98;;;15.10;99.90;;;;;;5110726;28;20479;-58
2023/10/10 06:12:47;;;;;;;42.50;29.13;;;15.00;99.90;;;;;;5111467;27;20054;-57
2023/10/10 06:15:17;;;;;;;40.47;29.27;;;15.00;99.90;;;;;;5107816;28;20487;-59
2023/10/10 06:17:51;;;;;;;48.10;31.02;;;15.40;99.90;;;;;;5090940;28;20040;-58
2023/10/10 06:20:21;;;;;;;41.78;31.08;;;15.50;99.90;;;;;;5091282;28;20523;-59
2023/10/10 06:22:47;;;;;;;45.20;30.80;;;15.30;99.90;;;;;;5091358;28;20039;-59
2023/10/10 06:25:17;;;;;;;42.88;31.20;;;15.40;99.90;;;;;;5090975;28;20112;-58
2023/10/10 06:27:54;;;;;;;44.40;30.75;;;15.50;99.90;;;;;;5091411;28;20028;-60
2023/10/10 06:30:20;;;;;;;42.58;30.63;;;15.20;99.90;;;;;;5091233;28;20105;-57
2023/10/10 06:32:49;;;;;;;44.42;31.65;;;15.10;99.90;;;;;;5109597;28;20040;-59
2023/10/10 06:37:45;;;;;;;50.00;32.75;;;15.20;99.90;;;;;;5098309;28;20044;-59
2023/10/10 06:40:13;;;;;;;47.97;33.33;;;15.50;99.90;;;;;;5090605;28;20032;-59
2023/10/10 06:42:46;;;;;;;55.75;24.80;;;15.30;99.90;;;;;;5090101;28;20083;-57
2023/10/10 06:45:21;;;;;;;50.95;34.95;;;15.20;99.90;;;;;;5111526;27;20044;-59
2023/10/10 06:47:50;;;;;;;55.72;37.17;;;15.40;99.90;;;;;;5111129;28;20035;-59
2023/10/10 06:50:21;;;;;;;64.70;39.45;;;15.60;99.90;;;;;;5111312;28;20040;-59
2023/10/10 06:52:54;;;;;;;62.05;40.10;;;15.70;99.90;;;;;;5111265;28;20398;-59
2023/10/10 06:55:23;;;;;;;71.53;42.42;;;15.50;99.90;;;;;;5088440;28;20074;-59
2023/10/10 06:57:59;;;;;;;76.72;44.13;;;15.40;99.90;;;;;;5090303;28;20030;-59
2023/10/10 07:00:42;;;;;;;75.22;42.70;;;15.90;99.90;;;;;;5090143;28;20390;-60
2023/10/10 07:03:09;;;;;;;83.95;44.38;;;15.70;99.90;;;;;;5090839;28;20040;-59
2023/10/10 07:05:35;;;;;;;78.45;46.72;;;15.50;99.90;;;;;;5076432;28;20036;-58
2023/10/10 07:08:13;;;;;;;85.07;45.88;;;15.60;99.90;;;;;;5083932;28;20043;-58
2023/10/10 07:10:42;;;;;;;95.40;48.65;;;16.00;99.90;;;;;;5084014;28;20040;-57
2023/10/10 07:13:18;;;;;;;90.35;49.30;;;15.90;99.90;;;;;;5085165;28;20392;-59
2023/10/10 07:15:51;;;;;;;92.53;50.45;;;15.50;99.90;;;;;;5084871;28;20549;-59
2023/10/10 07:23:37;;;;;;;;;;;15.60;99.90;;;;;;5084508;28;20063;-57
2023/10/10 07:26:07;;;;;;;114.93;55.95;;;15.90;99.90;;;;;;5083799;28;19923;-58
2023/10/10 07:28:47;;;;;;;114.32;57.17;;;16.10;99.90;;;;;;5084576;28;20036;-59
2023/10/10 07:31:17;;;;;;;104.13;56.63;;;15.70;99.90;;;;;;5085437;28;20044;-59
2023/10/10 07:33:55;;;;;;;108.65;56.97;;;15.70;99.90;;;;;;5084062;28;20051;-59
2023/10/10 07:36:24;;;;;;;103.90;55.63;;;16.10;99.90;;;;;;5084023;28;20039;-60
2023/10/10 07:38:54;;;;;;;109.07;42.25;;;16.10;99.90;;;;;;5084525;28;20619;-60
2023/10/10 07:41:27;;;;;;;95.70;52.53;;;15.80;99.90;;;;;;5084471;28;20032;-60
2023/10/10 07:43:59;;;;;;;100.15;55.00;;;16.20;99.90;;;;;;5083212;28;20055;-60
2023/10/10 07:46:28;;;;;;;101.70;54.80;;;15.90;99.90;;;;;;5084151;28;20031;-58
2023/10/10 07:48:54;;;;;;;106.80;55.78;;;16.00;99.90;;;;;;5081320;28;20060;-60
2023/10/10 07:51:29;;;;;;;99.78;54.55;;;16.10;99.90;;;;;;5081010;28;20043;-58
2023/10/10 07:54:10;;;;;;;104.32;52.55;;;16.20;99.90;;;;;;5081889;28;20036;-60
2023/10/10 07:56:44;;;;;;;97.95;53.38;;;16.30;99.90;;;;;;5084620;28;20036;-59
2023/10/10 07:59:13;;;;;;;;;;;16.40;99.90;;;;;;5083998;28;20032;-57
2023/10/10 08:01:41;;;;;;;88.95;51.17;;;16.00;99.90;;;;;;5084418;28;20319;-57
2023/10/10 08:04:07;;;;;;;86.93;50.47;;;16.20;99.90;;;;;;5081925;28;20079;-60
2023/10/10 08:06:33;;;;;;;86.95;48.92;;;16.30;99.90;;;;;;5083199;28;20558;-60
2023/10/10 08:09:18;;;;;;;88.13;49.60;;;16.10;99.90;;;;;;5083775;28;20175;-59
2023/10/10 08:11:47;;;;;;;80.28;47.30;;;16.60;99.90;;;;;;5084497;28;20047;-58
2023/10/10 08:14:13;;;;;;;82.68;47.38;;;16.30;99.90;;;;;;5084856;28;20541;-58
2023/10/10 08:16:40;;;;;;;85.03;47.13;;;16.60;99.90;;;;;;5084953;28;20089;-59
2023/10/10 08:19:08;;;;;;;80.20;46.75;;;16.60;99.90;;;;;;5084335;28;20032;-59
2023/10/10 08:21:37;;;;;;;84.00;37.92;;;16.30;99.90;;;;;;5084373;28;20044;-60
2023/10/10 08:24:04;;;;;;;80.93;46.88;;;16.40;99.90;;;;;;5082622;28;20506;-59
2023/10/10 08:26:38;;;;;;;75.18;44.97;;;16.50;99.90;;;;;;5083271;28;20040;-59
2023/10/10 08:29:06;;;;;;;;;;;16.60;99.90;;;;;;5083219;28;20043;-60
2023/10/10 08:31:33;;;;;;;78.28;33.53;;;16.70;99.90;;;;;;5084651;28;19967;-61
2023/10/10 08:33:58;;;;;;;74.50;43.63;;;16.70;99.90;;;;;;5083712;28;20048;-58
2023/10/10 08:36:24;;;;;;;77.45;36.70;;;16.90;99.90;;;;;;5085661;28;20035;-60
2023/10/10 08:38:52;;;;;;;72.97;44.42;;;16.70;99.90;;;;;;5084720;28;20482;-60
2023/10/10 08:41:41;;;;;;;68.50;42.88;;;16.90;99.90;;;;;;5084270;28;20089;-59
2023/10/10 08:44:09;;;;;;;66.10;43.70;;;17.10;99.90;;;;;;5084067;28;20024;-61
2023/10/10 08:46:46;;;;;;;67.05;42.95;;;17.10;99.90;;;;;;5108946;27;20036;-58
2023/10/10 08:49:13;;;;;;;63.90;43.47;;;17.10;99.90;;;;;;5083907;28;20369;-58
2023/10/10 08:51:41;;;;;;;63.58;42.25;;;16.90;99.90;;;;;;5083818;28;20369;-60
2023/10/10 08:54:11;;;;;;;60.30;41.03;;;17.30;99.90;;;;;;5082554;28;20040;-59
2023/10/10 08:56:40;;;;;;;67.03;42.00;;;17.00;99.90;;;;;;5083661;28;20036;-59
2023/10/10 08:59:12;;;;;;;61.22;42.40;;;17.10;99.90;;;;;;5084310;28;20059;-60
2023/10/10 09:01:39;;;;;;;60.70;40.33;;;17.40;99.90;;;;;;5084405;28;20065;-60
2023/10/10 09:04:06;;;;;;;58.22;40.67;;;17.30;99.90;;;;;;5082883;28;20514;-60
2023/10/10 09:06:57;;;;;;;61.42;41.65;;;17.50;99.90;;;;;;5082825;28;20032;-60
2023/10/10 09:09:33;;;;;;;62.15;40.58;;;17.80;99.90;;;;;;5084953;28;20040;-60
2023/10/10 09:12:02;;;;;;;61.05;39.85;;;17.90;99.90;;;;;;5082521;28;20387;-60
2023/10/10 09:14:42;;;;;;;59.47;38.85;;;17.90;99.90;;;;;;5084571;28;20047;-58
2023/10/10 09:17:28;;;;;;;56.63;39.25;;;17.90;99.90;;;;;;5108867;27;20040;-60
2023/10/10 09:19:57;;;;;;;54.08;37.70;;;18.00;99.90;;;;;;5078951;28;20036;-60
2023/10/10 09:22:34;;;;;;;54.05;39.00;;;18.10;99.90;;;;;;5082149;28;20043;-59
2023/10/10 09:25:18;;;;;;;52.15;37.22;;;18.30;99.90;;;;;;5083345;28;20493;-61
2023/10/10 09:27:59;;;;;;;58.22;39.42;;;18.30;99.90;;;;;;5083177;28;20032;-59
2023/10/10 09:30:31;;;;;;;53.22;38.03;;;18.20;99.90;;;;;;5083420;28;20409;-58
2023/10/10 09:33:12;;;;;;;54.15;37.97;;;18.20;99.90;;;;;;5081717;28;20048;-60
2023/10/10 09:35:48;;;;;;;56.40;37.92;;;18.30;99.90;;;;;;5084329;28;20494;-60
2023/10/10 09:38:19;;;;;;;59.33;31.92;;;18.20;99.90;;;;;;5082813;28;20105;-60
2023/10/10 09:40:48;;;;;;;52.35;37.08;;;18.20;99.90;;;;;;5079486;28;20071;-61
2023/10/10 09:43:24;;;;;;;51.15;35.60;;;18.30;99.90;;;;;;5081969;28;20032;-58
2023/10/10 09:45:59;;;;;;;49.55;34.28;;;18.50;99.90;;;;;;5083588;28;20043;-59
2023/10/10 09:48:28;;;;;;;47.50;35.28;;;18.60;99.90;;;;;;5081494;28;20383;-59
2023/10/10 09:51:08;;;;;;;51.92;35.78;;;18.60;99.90;;;;;;5065721;28;20499;-61
2023/10/10 09:53:36;;;;;;;46.92;34.20;;;18.70;99.90;;;;;;5082239;28;20108;-60
2023/10/10 09:56:08;;;;;;;46.03;32.85;;;18.70;99.90;;;;;;5063016;28;20111;-59
2023/10/10 09:58:41;;;;;;;45.75;34.15;;;18.70;99.90;;;;;;5082352;28;20028;-60
2023/10/10 10:01:14;;;;;;;46.35;34.95;;;18.90;99.90;;;;;;5082748;28;20081;-60
2023/10/10 10:03:49;;;;;;;46.97;32.90;;;18.80;99.90;;;;;;5082516;28;20085;-60
2023/10/10 10:07:12;;;;;;;46.42;32.85;;;18.90;99.90;;;;;;5081073;28;20035;-60
2023/10/10 10:09:45;;;;;;;47.78;34.03;;;18.90;99.90;;;;;;5052133;28;20109;-58
2023/10/10 10:12:31;;;;;;;51.55;34.83;;;19.00;99.90;;;;;;5081753;28;20135;-60
2023/10/10 10:15:16;;;;;;;45.88;32.08;;;19.20;99.90;;;;;;5080706;28;22587;-60
2023/10/10 10:18:13;;;;;;;46.75;32.40;;;19.50;99.90;;;;;;5080827;28;20040;-59
2023/10/10 10:21:04;;;;;;;40.97;29.00;;;19.70;99.90;;;;;;5082625;28;20040;-60
2023/10/10 10:23:44;;;;;;;30.13;22.38;;;19.90;99.90;;;;;;5080777;28;20085;-60
2023/10/10 10:26:12;;;;;;;33.88;21.77;;;20.20;99.90;;;;;;5080986;28;20036;-60
2023/10/10 10:28:42;;;;;;;26.88;20.42;;;20.50;99.90;;;;;;5081418;28;20108;-58
2023/10/10 10:31:28;;;;;;;30.75;20.17;;;20.60;99.90;;;;;;5082061;28;20042;-61
2023/10/10 10:34:10;;;;;;;25.95;18.63;;;20.80;99.90;;;;;;5082408;28;20036;-61
2023/10/10 10:36:54;;;;;;;27.25;17.20;;;20.90;99.90;;;;;;5081296;28;20111;-60
2023/10/10 10:39:26;;;;;;;23.40;17.35;;;21.00;99.90;;;;;;5077994;28;20036;-67
2023/10/10 10:42:00;;;;;;;25.63;17.27;;;21.00;99.90;;;;;;5081777;28;20038;-60
2023/10/10 10:44:43;;;;;;;;;;;21.10;99.90;;;;;;5081900;28;20670;-59
2023/10/10 10:47:31;;;;;;;22.40;16.35;;;21.20;99.90;;;;;;5081029;28;19912;-59
2023/10/10 10:49:57;;;;;;;24.92;17.48;;;21.20;99.90;;;;;;5080533;28;20518;-59
2023/10/10 10:52:56;;;;;;;23.38;17.08;;;21.30;99.90;;;;;;5080700;28;20051;-60
2023/10/10 10:55:27;;;;;;;27.08;16.70;;;21.30;99.90;;;;;;5081068;28;20494;-61
2023/10/10 10:58:07;;;;;;;26.27;17.00;;;21.40;99.90;;;;;;5082982;28;20016;-60
2023/10/10 11:01:00;;;;;;;25.50;16.35;;;21.50;99.90;;;;;;5083226;28;22375;-60
2023/10/10 11:03:34;;;;;;;22.35;16.38;;;21.50;99.90;;;;;;5087063;28;20101;-61
2023/10/10 11:06:01;;;;;;;23.92;16.63;;;21.60;99.90;;;;;;5087008;28;20043;-58
2023/10/10 11:14:04;;;;;;;23.80;17.08;;;21.80;99.90;;;;;;5087312;28;20044;-59
2023/10/10 11:16:45;;;;;;;23.60;16.63;;;22.00;99.90;;;;;;5086581;28;20047;-60
2023/10/10 11:21:57;;;;;;;21.58;13.95;;;22.30;99.90;;;;;;5088456;28;20151;-58
2023/10/10 11:24:25;;;;;;;19.42;14.23;;;22.40;99.90;;;;;;5085571;28;20112;-60
2023/10/10 11:29:45;;;;;;;19.13;13.75;;;22.70;99.90;;;;;;5087321;28;20074;-62
2023/10/10 11:32:23;;;;;;;20.50;14.65;;;22.80;99.90;;;;;;5089621;28;20040;-61
2023/10/10 11:34:51;;;;;;;19.88;13.18;;;22.90;99.90;;;;;;5089848;28;20090;-60
2023/10/10 11:37:23;;;;;;;26.75;15.38;;;22.80;99.90;;;;;;5089903;28;20047;-61
2023/10/10 11:40:19;;;;;;;22.52;14.50;;;22.80;99.90;;;;;;5090197;28;20046;-60
2023/10/10 11:43:11;;;;;;;21.27;14.77;;;22.90;99.90;;;;;;5089776;28;20079;-61
2023/10/10 11:45:44;;;;;;;20.60;13.55;;;23.00;99.90;;;;;;5089666;28;20383;-60
2023/10/10 11:48:13;;;;;;;19.05;13.00;;;23.20;99.90;;;;;;5090156;28;20025;-60
2023/10/10 11:50:45;;;;;;;21.45;12.90;;;23.40;99.90;;;;;;5089443;28;20536;-61
2023/10/10 11:53:19;;;;;;;22.95;14.57;;;23.60;99.90;;;;;;5092713;28;20055;-60
2023/10/10 11:55:45;;;;;;;19.92;15.30;;;23.50;99.90;;;;;;5091763;28;20507;-60
2023/10/10 11:58:17;;;;;;;18.05;13.63;;;23.60;99.90;;;;;;5093892;28;20038;-59
2023/10/10 12:01:04;;;;;;;19.40;13.45;;;23.60;99.90;;;;;;5091684;28;20036;-60
2023/10/10 12:06:14;;;;;;;20.95;13.85;;;23.70;99.90;;;;;;5093440;28;20549;-61
2023/10/10 12:08:45;;;;;;;18.15;13.73;;;23.80;99.90;;;;;;5112491;28;20035;-60
2023/10/10 12:11:20;;;;;;;19.15;13.18;;;23.80;99.90;;;;;;5109514;28;20087;-62
2023/10/10 12:13:50;;;;;;;19.20;14.30;;;23.90;99.90;;;;;;5093104;28;20411;-62
2023/10/10 12:16:24;;;;;;;21.02;14.77;;;24.00;99.90;;;;;;5097664;28;20043;-61
2023/10/10 12:18:49;;;;;;;20.80;14.00;;;24.00;99.90;;;;;;5113967;28;20046;-61
2023/10/10 12:21:20;;;;;;;20.85;13.73;;;24.00;99.90;;;;;;5113321;28;20063;-61
2023/10/10 12:23:54;;;;;;;22.25;14.30;;;24.10;99.90;;;;;;5113780;28;20044;-61
2023/10/10 12:26:22;;;;;;;24.67;17.15;;;24.10;99.90;;;;;;5113223;28;20046;-61
2023/10/10 12:28:48;;;;;;;21.35;15.48;;;24.10;99.90;;;;;;5113153;28;20063;-61
2023/10/10 12:31:17;;;;;;;22.35;15.40;;;24.00;99.90;;;;;;5113071;28;20047;-60
2023/10/10 12:33:48;;;;;;;19.65;13.68;;;23.80;99.90;;;;;;5092139;28;20036;-62
2023/10/10 12:36:15;;;;;;;20.88;13.77;;;23.50;99.90;;;;;;5092575;28;20528;-62
2023/10/10 12:38:41;;;;;;;22.00;14.90;;;23.30;99.90;;;;;;5111454;28;20043;-60
2023/10/10 12:41:11;;;;;;;20.80;15.25;;;23.20;99.90;;;;;;5113493;28;20027;-62
2023/10/10 12:43:37;;;;;;;20.80;14.75;;;23.00;99.90;;;;;;5113066;28;20170;-61
2023/10/10 12:46:04;;;;;;;20.70;14.63;;;23.00;99.90;;;;;;5113341;28;20036;-60
2023/10/10 12:48:31;;;;;;;20.92;14.73;;;23.00;99.90;;;;;;5112677;28;20290;-60
2023/10/10 12:51:00;;;;;;;20.88;15.38;;;23.00;99.90;;;;;;5106900;28;20489;-61
2023/10/10 12:53:30;;;;;;;21.65;15.02;;;23.10;99.90;;;;;;5092555;28;20036;-62
2023/10/10 12:56:01;;;;;;;23.70;16.20;;;23.20;99.90;;;;;;5092315;28;20522;-61
2023/10/10 12:58:28;;;;;;;19.88;14.70;;;23.40;99.90;;;;;;5092296;28;20079;-61
2023/10/10 13:00:56;;;;;;;23.55;15.02;;;23.40;99.90;;;;;;5112488;28;20115;-60
2023/10/10 13:03:27;;;;;;;20.48;13.77;;;23.40;99.90;;;;;;5113123;28;20044;-61
2023/10/10 13:05:58;;;;;;;23.25;13.77;;;23.30;99.90;;;;;;5111727;28;20035;-60
2023/10/10 13:11:44;;;;;;;21.55;14.75;;;23.30;99.90;;;;;;5077805;28;20048;-60
2023/10/10 13:14:14;;;;;;;23.02;15.65;;;23.20;99.90;;;;;;5110959;28;20055;-62
2023/10/10 13:16:52;;;;;;;21.20;14.63;;;23.10;99.90;;;;;;5076135;28;20040;-59
2023/10/10 13:19:20;;;;;;;23.17;15.80;;;23.10;99.90;;;;;;5110189;28;20035;-61
2023/10/10 13:21:52;;;;;;;25.48;16.27;;;23.00;99.90;;;;;;5112381;28;20046;-61
2023/10/10 13:24:18;;;;;;;22.42;15.93;;;23.00;99.90;;;;;;5112037;28;20118;-61
2023/10/10 13:26:51;;;;;;;24.70;17.67;;;22.90;99.90;;;;;;5112076;28;20042;-61
2023/10/10 13:29:17;;;;;;;22.38;16.10;;;22.80;99.90;;;;;;5111840;28;20035;-59
2023/10/10 13:31:46;;;;;;;23.80;16.85;;;22.80;99.90;;;;;;5111014;28;20118;-61
2023/10/10 13:34:13;;;;;;;21.63;15.52;;;22.70;99.90;;;;;;5090316;28;20032;-59
2023/10/10 13:36:39;;;;;;;22.08;14.15;;;22.60;99.90;;;;;;5091375;28;20028;-60
2023/10/10 13:39:09;;;;;;;25.75;15.85;;;22.50;99.90;;;;;;5091450;28;20042;-63
2023/10/10 13:41:37;;;;;;;23.88;16.92;;;22.40;99.90;;;;;;5091777;28;20054;-60
2023/10/10 13:44:04;;;;;;;24.17;16.13;;;22.30;99.90;;;;;;5091651;28;20123;-61
2023/10/10 13:46:34;;;;;;;24.40;15.98;;;22.30;99.90;;;;;;5091873;28;20447;-62
2023/10/10 13:49:03;;;;;;;21.80;15.73;;;22.20;99.90;;;;;;5091202;28;20079;-60
2023/10/10 13:51:30;;;;;;;21.40;14.77;;;22.20;99.90;;;;;;5089506;28;20043;-60
2023/10/10 13:54:02;;;;;;;23.38;14.35;;;22.20;99.90;;;;;;5091395;28;20036;-60
2023/10/10 13:56:30;;;;;;;20.85;14.52;;;22.20;99.90;;;;;;5091124;28;20540;-60
2023/10/10 13:58:57;;;;;;;22.25;14.40;;;22.30;99.90;;;;;;5091459;28;20048;-61
2023/10/10 14:04:00;;;;;;;20.65;13.40;;;22.40;99.90;;;;;;5091539;28;20048;-58
2023/10/10 14:06:27;;;;;;;21.02;14.02;;;22.50;99.90;;;;;;5091375;28;20036;-61
2023/10/10 14:08:54;;;;;;;19.55;13.57;;;22.50;99.90;;;;;;5091070;28;20441;-60
2023/10/10 14:11:22;;;;;;;22.75;14.05;;;22.50;99.90;;;;;;5109305;28;20431;-60
2023/10/10 14:13:53;;;;;;;23.52;13.95;;;22.50;99.90;;;;;;5094336;28;20044;-62
2023/10/10 14:16:21;;;;;;;17.90;13.20;;;22.50;99.90;;;;;;5090680;28;20074;-60
2023/10/10 14:18:50;;;;;;;20.90;13.18;;;22.50;99.90;;;;;;5090905;28;20076;-61
2023/10/10 14:21:27;;;;;;;22.75;14.27;;;22.40;99.90;;;;;;5091022;28;20110;-61
2023/10/10 14:24:13;;;;;;;17.58;13.43;;;22.40;99.90;;;;;;5090902;28;20450;-61
2023/10/10 14:26:43;;;;;;;19.23;12.80;;;22.40;99.90;;;;;;5090576;28;20042;-61
2023/10/10 14:29:12;;;;;;;20.38;13.30;;;22.30;99.90;;;;;;5090762;28;20494;-63
2023/10/10 14:31:45;;;;;;;20.52;13.80;;;22.30;99.90;;;;;;5090223;28;20051;-60
2023/10/10 14:34:19;;;;;;;18.77;13.15;;;22.20;99.90;;;;;;5090940;28;20032;-61
2023/10/10 14:36:46;;;;;;;20.05;13.70;;;22.10;99.90;;;;;;5090570;28;20105;-61
2023/10/10 14:42:10;;;;;;;20.88;13.38;;;22.00;99.90;;;;;;5056006;28;20105;-61
2023/10/10 14:44:40;;;;;;;21.83;14.52;;;22.00;99.90;;;;;;5090204;28;20042;-61
2023/10/10 14:47:07;;;;;;;20.33;13.98;;;22.00;99.90;;;;;;5087958;28;20054;-61
2023/10/10 14:49:34;;;;;;;20.88;13.98;;;21.90;99.90;;;;;;5090637;28;20036;-59
2023/10/10 14:52:04;;;;;;;19.88;13.77;;;21.90;99.90;;;;;;5090520;28;20499;-59
2023/10/10 14:54:31;;;;;;;20.30;14.77;;;21.90;99.90;;;;;;5090507;28;20418;-61
2023/10/10 14:56:57;;;;;;;21.88;15.38;;;21.90;99.90;;;;;;5090113;28;20383;-58
2023/10/10 14:59:31;;;;;;;21.73;15.32;;;21.80;99.90;;;;;;5090418;28;20036;-61
2023/10/10 15:01:59;;;;;;;22.77;14.52;;;21.90;99.90;;;;;;5090571;28;20052;-60
2023/10/10 15:04:29;;;;;;;22.27;14.75;;;21.80;99.90;;;;;;5110666;28;20420;-61
2023/10/10 15:06:56;;;;;;;19.48;14.38;;;21.70;99.90;;;;;;5111198;28;20039;-61
2023/10/10 15:09:25;;;;;;;18.98;14.65;;;21.70;99.90;;;;;;5110213;28;20071;-61
2023/10/10 15:12:01;;;;;;;20.42;14.98;;;21.70;99.90;;;;;;5091063;28;20044;-59
2023/10/10 15:14:31;;;;;;;20.80;14.75;;;21.70;99.90;;;;;;5087618;28;20056;-61
2023/10/10 15:16:58;;;;;;;19.45;14.27;;;21.70;99.90;;;;;;5089736;28;20044;-60
2023/10/10 15:19:25;;;;;;;20.70;14.20;;;21.70;99.90;;;;;;5090068;28;20039;-60
2023/10/10 15:21:50;;;;;;;19.40;13.52;;;21.60;99.90;;;;;;5090661;28;20031;-61
2023/10/10 15:24:17;;;;;;;21.88;14.20;;;21.70;99.90;;;;;;5109971;28;20039;-59
2023/10/10 15:26:47;;;;;;;17.73;12.77;;;21.70;99.90;;;;;;5110340;28;20542;-62
2023/10/10 15:29:16;;;;;;;19.77;13.48;;;21.70;99.90;;;;;;5113586;28;20051;-61
2023/10/10 15:31:42;;;;;;;20.85;13.45;;;21.70;99.90;;;;;;5114759;28;20042;-59
2023/10/10 15:34:15;;;;;;;19.23;12.60;;;21.70;99.90;;;;;;5113328;28;20037;-60
2023/10/10 15:36:45;;;;;;;19.90;12.70;;;21.70;99.90;;;;;;5111342;28;20142;-60
2023/10/10 15:39:12;;;;;;;21.50;13.68;;;21.70;99.90;;;;;;5093909;28;20043;-61
2023/10/10 15:41:40;;;;;;;18.02;12.65;;;21.60;99.90;;;;;;5094914;28;20056;-59
2023/10/10 15:44:08;;;;;;;19.45;12.68;;;21.70;99.90;;;;;;5114209;28;20421;-58
2023/10/10 15:46:37;;;;;;;19.52;13.00;;;21.60;99.90;;;;;;5113037;28;20047;-60
2023/10/10 15:49:09;;;;;;;20.35;12.18;;;21.60;99.90;;;;;;5099091;28;20031;-61
2023/10/10 15:51:38;;;;;;;21.08;13.18;;;21.50;99.90;;;;;;5091403;28;20062;-62
2023/10/10 15:54:08;;;;;;;17.13;12.50;;;21.50;99.90;;;;;;5091316;28;20040;-61
2023/10/10 15:56:35;;;;;;;19.13;12.63;;;21.40;99.90;;;;;;5092194;28;20040;-61
2023/10/10 15:59:01;;;;;;;19.17;13.55;;;21.30;99.90;;;;;;5090732;28;20422;-62